sensor_id;sensor_type;location;lat;lon;timestamp;pressure;altitude;pressure_sealevel;temperature;humidity
82887;BME280;72660;51.258;-2.200;2024-03-22T00:01:25;101437.37;;;9.98;48.19
82887;BME280;72660;51.258;-2.200;2024-03-22T00:03:51;101436.62;;;10.70;47.01
82887;BME280;72660;51.258;-2.200;2024-03-22T00:06:16;101429.88;;;10.87;46.47
82887;BME280;72660;51.258;-2.200;2024-03-22T00:08:42;101423.67;;;11.51;45.91
82887;BME280;72660;51.258;-2.200;2024-03-22T00:11:07;101418.12;;;11.46;45.50
82887;BME280;72660;51.258;-2.200;2024-03-22T00:13:32;101421.30;;;11.24;45.45
82887;BME280;72660;51.258;-2.200;2024-03-22T00:15:58;101421.48;;;10.27;46.24
82887;BME280;72660;51.258;-2.200;2024-03-22T00:18:23;101427.29;;;10.90;45.90
82887;BME280;72660;51.258;-2.200;2024-03-22T00:20:49;101424.79;;;11.37;45.04
82887;BME280;72660;51.258;-2.200;2024-03-22T00:23:14;101422.48;;;11.57;45.33
82887;BME280;72660;51.258;-2.200;2024-03-22T00:25:39;101421.43;;;10.98;45.98
82887;BME280;72660;51.258;-2.200;2024-03-22T00:28:05;101428.46;;;11.27;45.69
82887;BME280;72660;51.258;-2.200;2024-03-22T00:30:31;101424.59;;;11.21;46.20
82887;BME280;72660;51.258;-2.200;2024-03-22T00:32:56;101419.17;;;11.25;47.19
82887;BME280;72660;51.258;-2.200;2024-03-22T00:35:22;101415.56;;;11.08;47.63
82887;BME280;72660;51.258;-2.200;2024-03-22T00:37:47;101412.08;;;10.90;47.38
82887;BME280;72660;51.258;-2.200;2024-03-22T00:40:13;101411.55;;;10.75;48.47
82887;BME280;72660;51.258;-2.200;2024-03-22T00:42:38;101403.68;;;10.42;49.72
82887;BME280;72660;51.258;-2.200;2024-03-22T00:45:04;101403.28;;;10.80;49.23
82887;BME280;72660;51.258;-2.200;2024-03-22T00:47:29;101405.27;;;10.81;49.43
82887;BME280;72660;51.258;-2.200;2024-03-22T00:49:54;101410.87;;;10.51;49.70
82887;BME280;72660;51.258;-2.200;2024-03-22T00:52:20;101409.46;;;11.18;49.06
82887;BME280;72660;51.258;-2.200;2024-03-22T00:54:45;101401.68;;;10.80;49.86
82887;BME280;72660;51.258;-2.200;2024-03-22T00:57:11;101393.86;;;10.45;50.33
82887;BME280;72660;51.258;-2.200;2024-03-22T00:59:37;101390.41;;;11.07;48.87
82887;BME280;72660;51.258;-2.200;2024-03-22T01:02:03;101382.94;;;11.23;49.09
82887;BME280;72660;51.258;-2.200;2024-03-22T01:04:27;101377.85;;;11.07;49.64
82887;BME280;72660;51.258;-2.200;2024-03-22T01:06:53;101374.67;;;10.83;50.03
82887;BME280;72660;51.258;-2.200;2024-03-22T01:09:18;101371.91;;;10.97;50.57
82887;BME280;72660;51.258;-2.200;2024-03-22T01:11:44;101367.54;;;11.21;50.47
82887;BME280;72660;51.258;-2.200;2024-03-22T01:14:09;101365.22;;;10.82;50.92
82887;BME280;72660;51.258;-2.200;2024-03-22T01:16:36;101360.12;;;10.49;51.15
82887;BME280;72660;51.258;-2.200;2024-03-22T01:19:00;101363.43;;;10.87;51.29
82887;BME280;72660;51.258;-2.200;2024-03-22T01:21:26;101364.56;;;10.56;51.66
82887;BME280;72660;51.258;-2.200;2024-03-22T01:23:51;101365.17;;;10.18;52.33
82887;BME280;72660;51.258;-2.200;2024-03-22T01:26:16;101363.17;;;10.09;52.61
82887;BME280;72660;51.258;-2.200;2024-03-22T01:28:42;101358.33;;;9.97;52.63
82887;BME280;72660;51.258;-2.200;2024-03-22T01:31:08;101348.99;;;10.68;51.58
82887;BME280;72660;51.258;-2.200;2024-03-22T01:33:33;101347.94;;;10.01;52.80
82887;BME280;72660;51.258;-2.200;2024-03-22T01:35:59;101343.69;;;10.12;52.34
82887;BME280;72660;51.258;-2.200;2024-03-22T01:38:24;101353.44;;;9.89;53.09
82887;BME280;72660;51.258;-2.200;2024-03-22T01:40:49;101359.00;;;10.35;52.27
82887;BME280;72660;51.258;-2.200;2024-03-22T01:43:14;101366.54;;;10.91;51.35
82887;BME280;72660;51.258;-2.200;2024-03-22T01:45:40;101367.72;;;10.46;51.69
82887;BME280;72660;51.258;-2.200;2024-03-22T01:48:07;101357.98;;;10.53;51.84
82887;BME280;72660;51.258;-2.200;2024-03-22T01:50:31;101342.06;;;10.39;51.78
82887;BME280;72660;51.258;-2.200;2024-03-22T01:52:57;101337.33;;;10.45;51.58
82887;BME280;72660;51.258;-2.200;2024-03-22T01:55:23;101337.64;;;10.56;51.04
82887;BME280;72660;51.258;-2.200;2024-03-22T01:57:49;101338.46;;;9.95;52.63
82887;BME280;72660;51.258;-2.200;2024-03-22T02:00:13;101341.61;;;10.55;51.39
82887;BME280;72660;51.258;-2.200;2024-03-22T02:02:38;101340.07;;;10.68;50.81
82887;BME280;72660;51.258;-2.200;2024-03-22T02:05:11;101338.82;;;10.79;50.42
82887;BME280;72660;51.258;-2.200;2024-03-22T02:07:30;101333.09;;;10.94;50.20
82887;BME280;72660;51.258;-2.200;2024-03-22T02:09:54;101330.76;;;10.91;50.07
82887;BME280;72660;51.258;-2.200;2024-03-22T02:12:20;101327.43;;;10.77;50.29
82887;BME280;72660;51.258;-2.200;2024-03-22T02:14:45;101324.03;;;11.01;49.77
82887;BME280;72660;51.258;-2.200;2024-03-22T02:17:10;101323.20;;;10.77;50.08
82887;BME280;72660;51.258;-2.200;2024-03-22T02:19:36;101317.69;;;10.96;50.07
82887;BME280;72660;51.258;-2.200;2024-03-22T02:22:01;101314.11;;;10.53;50.33
82887;BME280;72660;51.258;-2.200;2024-03-22T02:24:26;101311.58;;;10.57;50.29
82887;BME280;72660;51.258;-2.200;2024-03-22T02:26:52;101310.95;;;10.81;49.21
82887;BME280;72660;51.258;-2.200;2024-03-22T02:29:17;101304.59;;;10.63;50.17
82887;BME280;72660;51.258;-2.200;2024-03-22T02:31:43;101306.80;;;10.91;50.03
82887;BME280;72660;51.258;-2.200;2024-03-22T02:34:08;101306.77;;;11.12;49.23
82887;BME280;72660;51.258;-2.200;2024-03-22T02:36:33;101304.83;;;10.86;49.96
82887;BME280;72660;51.258;-2.200;2024-03-22T02:38:58;101296.64;;;10.98;49.67
82887;BME280;72660;51.258;-2.200;2024-03-22T02:41:24;101296.12;;;10.62;50.25
82887;BME280;72660;51.258;-2.200;2024-03-22T02:43:49;101291.90;;;10.83;50.20
82887;BME280;72660;51.258;-2.200;2024-03-22T02:46:14;101284.84;;;10.88;50.51
82887;BME280;72660;51.258;-2.200;2024-03-22T02:48:39;101274.42;;;10.87;50.60
82887;BME280;72660;51.258;-2.200;2024-03-22T02:51:05;101274.92;;;10.47;50.98
82887;BME280;72660;51.258;-2.200;2024-03-22T02:53:30;101266.05;;;10.55;51.24
82887;BME280;72660;51.258;-2.200;2024-03-22T02:55:55;101266.23;;;10.48;51.47
82887;BME280;72660;51.258;-2.200;2024-03-22T02:58:21;101265.69;;;10.45;51.08
82887;BME280;72660;51.258;-2.200;2024-03-22T03:00:46;101262.49;;;10.59;51.01
82887;BME280;72660;51.258;-2.200;2024-03-22T03:03:12;101259.15;;;10.96;50.82
82887;BME280;72660;51.258;-2.200;2024-03-22T03:05:37;101256.49;;;11.15;50.66
82887;BME280;72660;51.258;-2.200;2024-03-22T03:08:03;101254.01;;;10.90;50.76
82887;BME280;72660;51.258;-2.200;2024-03-22T03:10:28;101249.33;;;10.46;51.68
82887;BME280;72660;51.258;-2.200;2024-03-22T03:12:54;101244.07;;;10.60;51.91
82887;BME280;72660;51.258;-2.200;2024-03-22T03:15:19;101238.81;;;10.32;52.69
82887;BME280;72660;51.258;-2.200;2024-03-22T03:17:44;101237.70;;;10.40;52.57
82887;BME280;72660;51.258;-2.200;2024-03-22T03:20:11;101231.97;;;10.52;52.49
82887;BME280;72660;51.258;-2.200;2024-03-22T03:22:36;101225.61;;;9.98;53.69
82887;BME280;72660;51.258;-2.200;2024-03-22T03:25:01;101224.21;;;10.55;52.63
82887;BME280;72660;51.258;-2.200;2024-03-22T03:27:26;101221.38;;;10.72;52.27
82887;BME280;72660;51.258;-2.200;2024-03-22T03:29:52;101224.51;;;10.21;53.54
82887;BME280;72660;51.258;-2.200;2024-03-22T03:32:17;101223.24;;;10.29;53.60
82887;BME280;72660;51.258;-2.200;2024-03-22T03:34:42;101218.81;;;10.82;53.19
82887;BME280;72660;51.258;-2.200;2024-03-22T03:37:07;101221.32;;;10.96;52.76
82887;BME280;72660;51.258;-2.200;2024-03-22T03:39:32;101219.49;;;10.70;52.72
82887;BME280;72660;51.258;-2.200;2024-03-22T03:41:58;101216.50;;;11.01;52.69
82887;BME280;72660;51.258;-2.200;2024-03-22T03:44:24;101215.13;;;10.86;52.29
82887;BME280;72660;51.258;-2.200;2024-03-22T03:46:49;101213.65;;;10.69;52.97
82887;BME280;72660;51.258;-2.200;2024-03-22T03:49:15;101212.05;;;11.32;52.30
82887;BME280;72660;51.258;-2.200;2024-03-22T03:51:41;101218.78;;;11.20;52.78
82887;BME280;72660;51.258;-2.200;2024-03-22T03:54:06;101213.68;;;11.45;51.99
82887;BME280;72660;51.258;-2.200;2024-03-22T03:56:32;101210.55;;;11.17;52.06
82887;BME280;72660;51.258;-2.200;2024-03-22T03:58:56;101206.36;;;11.72;51.41
82887;BME280;72660;51.258;-2.200;2024-03-22T04:01:22;101203.27;;;11.50;51.43
82887;BME280;72660;51.258;-2.200;2024-03-22T04:03:48;101201.49;;;11.64;51.28
82887;BME280;72660;51.258;-2.200;2024-03-22T04:06:12;101201.88;;;11.23;52.00
82887;BME280;72660;51.258;-2.200;2024-03-22T04:08:37;101202.23;;;11.67;51.66
82887;BME280;72660;51.258;-2.200;2024-03-22T04:11:03;101199.73;;;11.28;52.20
82887;BME280;72660;51.258;-2.200;2024-03-22T04:13:28;101200.82;;;10.94;52.66
82887;BME280;72660;51.258;-2.200;2024-03-22T04:15:58;101199.82;;;11.83;51.81
82887;BME280;72660;51.258;-2.200;2024-03-22T04:18:20;101192.99;;;11.29;52.81
82887;BME280;72660;51.258;-2.200;2024-03-22T04:20:53;101194.78;;;10.68;53.94
82887;BME280;72660;51.258;-2.200;2024-03-22T04:23:10;101193.51;;;11.37;52.85
82887;BME280;72660;51.258;-2.200;2024-03-22T04:25:36;101190.78;;;11.54;52.56
82887;BME280;72660;51.258;-2.200;2024-03-22T04:28:01;101191.66;;;11.25;53.80
82887;BME280;72660;51.258;-2.200;2024-03-22T04:30:26;101190.40;;;11.56;52.84
82887;BME280;72660;51.258;-2.200;2024-03-22T04:32:52;101188.49;;;11.91;52.18
82887;BME280;72660;51.258;-2.200;2024-03-22T04:35:17;101190.45;;;11.49;53.16
82887;BME280;72660;51.258;-2.200;2024-03-22T04:37:42;101191.72;;;11.82;52.41
82887;BME280;72660;51.258;-2.200;2024-03-22T04:40:08;101194.53;;;11.92;52.37
82887;BME280;72660;51.258;-2.200;2024-03-22T04:42:32;101191.78;;;11.86;52.69
82887;BME280;72660;51.258;-2.200;2024-03-22T04:44:58;101193.95;;;11.47;53.47
82887;BME280;72660;51.258;-2.200;2024-03-22T04:47:23;101188.07;;;11.59;52.90
82887;BME280;72660;51.258;-2.200;2024-03-22T04:49:50;101187.19;;;12.01;52.49
82887;BME280;72660;51.258;-2.200;2024-03-22T04:52:14;101188.09;;;11.58;53.59
82887;BME280;72660;51.258;-2.200;2024-03-22T04:54:39;101188.81;;;10.73;53.93
82887;BME280;72660;51.258;-2.200;2024-03-22T04:57:05;101187.66;;;11.22;53.67
82887;BME280;72660;51.258;-2.200;2024-03-22T04:59:30;101184.02;;;11.92;52.98
82887;BME280;72660;51.258;-2.200;2024-03-22T05:01:56;101182.72;;;11.77;53.22
82887;BME280;72660;51.258;-2.200;2024-03-22T05:04:22;101184.50;;;11.97;53.07
82887;BME280;72660;51.258;-2.200;2024-03-22T05:06:48;101182.54;;;12.25;52.51
82887;BME280;72660;51.258;-2.200;2024-03-22T05:09:13;101177.50;;;12.41;52.45
82887;BME280;72660;51.258;-2.200;2024-03-22T05:11:39;101175.22;;;12.21;52.69
82887;BME280;72660;51.258;-2.200;2024-03-22T05:14:05;101169.75;;;12.51;52.04
82887;BME280;72660;51.258;-2.200;2024-03-22T05:16:30;101168.48;;;11.35;54.02
82887;BME280;72660;51.258;-2.200;2024-03-22T05:18:55;101167.59;;;11.66;53.42
82887;BME280;72660;51.258;-2.200;2024-03-22T05:21:21;101169.57;;;11.98;52.50
82887;BME280;72660;51.258;-2.200;2024-03-22T05:23:46;101167.49;;;12.16;52.06
82887;BME280;72660;51.258;-2.200;2024-03-22T05:26:11;101166.13;;;12.52;51.29
82887;BME280;72660;51.258;-2.200;2024-03-22T05:28:37;101157.77;;;12.83;51.15
82887;BME280;72660;51.258;-2.200;2024-03-22T05:31:02;101157.55;;;12.22;52.43
82887;BME280;72660;51.258;-2.200;2024-03-22T05:33:28;101160.08;;;12.51;51.90
82887;BME280;72660;51.258;-2.200;2024-03-22T05:35:53;101157.69;;;12.39;51.53
82887;BME280;72660;51.258;-2.200;2024-03-22T05:38:18;101156.42;;;12.87;51.68
82887;BME280;72660;51.258;-2.200;2024-03-22T05:40:43;101151.40;;;12.26;52.49
82887;BME280;72660;51.258;-2.200;2024-03-22T05:43:09;101151.56;;;12.55;51.96
82887;BME280;72660;51.258;-2.200;2024-03-22T05:45:34;101158.96;;;12.53;52.02
82887;BME280;72660;51.258;-2.200;2024-03-22T05:47:59;101156.25;;;12.80;51.68
82887;BME280;72660;51.258;-2.200;2024-03-22T05:50:25;101147.12;;;13.06;50.63
82887;BME280;72660;51.258;-2.200;2024-03-22T05:52:50;101142.63;;;12.84;51.37
82887;BME280;72660;51.258;-2.200;2024-03-22T05:55:15;101149.63;;;12.40;52.13
82887;BME280;72660;51.258;-2.200;2024-03-22T05:57:41;101145.56;;;13.24;51.31
82887;BME280;72660;51.258;-2.200;2024-03-22T06:00:07;101148.28;;;12.59;51.68
82887;BME280;72660;51.258;-2.200;2024-03-22T06:02:31;101142.71;;;13.04;51.31
82887;BME280;72660;51.258;-2.200;2024-03-22T06:04:57;101137.60;;;12.67;51.84
82887;BME280;72660;51.258;-2.200;2024-03-22T06:07:22;101136.15;;;12.00;52.81
82887;BME280;72660;51.258;-2.200;2024-03-22T06:09:47;101134.02;;;12.02;52.87
82887;BME280;72660;51.258;-2.200;2024-03-22T06:12:13;101137.37;;;12.28;52.47
82887;BME280;72660;51.258;-2.200;2024-03-22T06:14:38;101136.22;;;12.73;52.03
82887;BME280;72660;51.258;-2.200;2024-03-22T06:17:03;101139.70;;;12.46;52.24
82887;BME280;72660;51.258;-2.200;2024-03-22T06:19:28;101139.14;;;12.65;51.88
82887;BME280;72660;51.258;-2.200;2024-03-22T06:21:54;101140.55;;;13.23;50.75
82887;BME280;72660;51.258;-2.200;2024-03-22T06:24:19;101141.61;;;13.37;50.88
82887;BME280;72660;51.258;-2.200;2024-03-22T06:26:44;101139.97;;;13.24;51.04
82887;BME280;72660;51.258;-2.200;2024-03-22T06:29:10;101140.89;;;12.93;51.22
82887;BME280;72660;51.258;-2.200;2024-03-22T06:31:35;101142.72;;;12.30;51.79
82887;BME280;72660;51.258;-2.200;2024-03-22T06:34:01;101144.40;;;12.76;51.53
82887;BME280;72660;51.258;-2.200;2024-03-22T06:36:26;101141.87;;;12.77;51.64
82887;BME280;72660;51.258;-2.200;2024-03-22T06:38:51;101141.73;;;13.00;51.30
82887;BME280;72660;51.258;-2.200;2024-03-22T06:41:17;101141.25;;;13.06;51.03
82887;BME280;72660;51.258;-2.200;2024-03-22T06:43:43;101140.77;;;12.44;52.26
82887;BME280;72660;51.258;-2.200;2024-03-22T06:46:08;101139.31;;;12.11;53.09
82887;BME280;72660;51.258;-2.200;2024-03-22T06:48:33;101142.93;;;12.45;52.42
82887;BME280;72660;51.258;-2.200;2024-03-22T06:50:58;101142.47;;;12.88;52.08
82887;BME280;72660;51.258;-2.200;2024-03-22T06:53:24;101143.33;;;12.76;52.31
82887;BME280;72660;51.258;-2.200;2024-03-22T06:55:49;101145.60;;;12.35;52.84
82887;BME280;72660;51.258;-2.200;2024-03-22T06:58:14;101146.91;;;12.75;52.77
82887;BME280;72660;51.258;-2.200;2024-03-22T07:00:40;101146.24;;;12.86;52.18
82887;BME280;72660;51.258;-2.200;2024-03-22T07:03:05;101144.14;;;13.18;51.67
82887;BME280;72660;51.258;-2.200;2024-03-22T07:05:31;101142.73;;;12.72;52.25
82887;BME280;72660;51.258;-2.200;2024-03-22T07:07:56;101137.75;;;13.07;51.50
82887;BME280;72660;51.258;-2.200;2024-03-22T07:10:22;101138.00;;;12.98;52.08
82887;BME280;72660;51.258;-2.200;2024-03-22T07:12:47;101149.71;;;13.38;51.40
82887;BME280;72660;51.258;-2.200;2024-03-22T07:15:12;101144.37;;;13.13;51.78
82887;BME280;72660;51.258;-2.200;2024-03-22T07:17:38;101145.47;;;13.10;52.56
82887;BME280;72660;51.258;-2.200;2024-03-22T07:20:03;101152.14;;;13.25;52.04
82887;BME280;72660;51.258;-2.200;2024-03-22T07:22:29;101151.39;;;13.62;51.89
82887;BME280;72660;51.258;-2.200;2024-03-22T07:24:53;101151.40;;;13.55;52.01
82887;BME280;72660;51.258;-2.200;2024-03-22T07:27:19;101148.81;;;13.29;52.19
82887;BME280;72660;51.258;-2.200;2024-03-22T07:29:45;101145.97;;;13.62;51.99
82887;BME280;72660;51.258;-2.200;2024-03-22T07:32:10;101140.27;;;13.32;52.42
82887;BME280;72660;51.258;-2.200;2024-03-22T07:34:35;101134.23;;;13.62;51.58
82887;BME280;72660;51.258;-2.200;2024-03-22T07:37:00;101133.05;;;13.84;51.10
82887;BME280;72660;51.258;-2.200;2024-03-22T07:39:26;101123.28;;;13.64;51.37
82887;BME280;72660;51.258;-2.200;2024-03-22T07:41:51;101115.15;;;13.51;51.68
82887;BME280;72660;51.258;-2.200;2024-03-22T07:44:17;101121.32;;;13.50;52.25
82887;BME280;72660;51.258;-2.200;2024-03-22T07:46:41;101129.96;;;13.74;52.23
82887;BME280;72660;51.258;-2.200;2024-03-22T07:49:07;101140.76;;;13.86;51.90
82887;BME280;72660;51.258;-2.200;2024-03-22T07:51:32;101147.25;;;14.01;51.98
82887;BME280;72660;51.258;-2.200;2024-03-22T07:53:57;101144.96;;;14.07;51.51
82887;BME280;72660;51.258;-2.200;2024-03-22T07:56:23;101151.00;;;13.94;51.66
82887;BME280;72660;51.258;-2.200;2024-03-22T07:58:48;101157.17;;;14.18;51.75
82887;BME280;72660;51.258;-2.200;2024-03-22T08:01:13;101157.44;;;13.77;52.05
82887;BME280;72660;51.258;-2.200;2024-03-22T08:03:39;101160.75;;;13.61;52.26
82887;BME280;72660;51.258;-2.200;2024-03-22T08:06:04;101159.01;;;13.66;52.75
82887;BME280;72660;51.258;-2.200;2024-03-22T08:08:29;101158.37;;;14.20;51.85
82887;BME280;72660;51.258;-2.200;2024-03-22T08:10:54;101158.11;;;13.44;52.88
82887;BME280;72660;51.258;-2.200;2024-03-22T08:13:20;101156.97;;;13.97;52.02
82887;BME280;72660;51.258;-2.200;2024-03-22T08:15:45;101161.08;;;14.35;51.40
82887;BME280;72660;51.258;-2.200;2024-03-22T08:18:10;101158.13;;;13.88;52.08
82887;BME280;72660;51.258;-2.200;2024-03-22T08:20:36;101165.54;;;12.91;52.90
82887;BME280;72660;51.258;-2.200;2024-03-22T08:23:01;101164.44;;;12.84;53.38
82887;BME280;72660;51.258;-2.200;2024-03-22T08:25:26;101166.09;;;12.91;53.74
82887;BME280;72660;51.258;-2.200;2024-03-22T08:27:51;101164.35;;;12.37;54.72
82887;BME280;72660;51.258;-2.200;2024-03-22T08:30:18;101164.95;;;12.02;55.35
82887;BME280;72660;51.258;-2.200;2024-03-22T08:32:42;101171.91;;;12.79;53.89
82887;BME280;72660;51.258;-2.200;2024-03-22T08:35:08;101173.79;;;12.39;55.33
82887;BME280;72660;51.258;-2.200;2024-03-22T08:37:33;101173.80;;;12.92;53.97
82887;BME280;72660;51.258;-2.200;2024-03-22T08:39:58;101172.42;;;13.36;53.22
82887;BME280;72660;51.258;-2.200;2024-03-22T08:42:23;101170.87;;;13.13;53.52
82887;BME280;72660;51.258;-2.200;2024-03-22T08:44:48;101172.35;;;13.03;52.70
82887;BME280;72660;51.258;-2.200;2024-03-22T08:47:14;101175.45;;;13.07;52.33
82887;BME280;72660;51.258;-2.200;2024-03-22T08:49:39;101174.78;;;12.53;53.45
82887;BME280;72660;51.258;-2.200;2024-03-22T08:52:05;101179.56;;;13.00;51.98
82887;BME280;72660;51.258;-2.200;2024-03-22T08:54:30;101181.84;;;13.02;51.71
82887;BME280;72660;51.258;-2.200;2024-03-22T08:56:55;101183.62;;;12.85;51.68
82887;BME280;72660;51.258;-2.200;2024-03-22T08:59:21;101190.12;;;12.04;52.83
82887;BME280;72660;51.258;-2.200;2024-03-22T09:01:46;101193.38;;;12.48;51.76
82887;BME280;72660;51.258;-2.200;2024-03-22T09:04:11;101199.97;;;12.24;52.12
82887;BME280;72660;51.258;-2.200;2024-03-22T09:06:37;101191.84;;;11.92;52.18
82887;BME280;72660;51.258;-2.200;2024-03-22T09:09:02;101194.36;;;12.02;51.73
82887;BME280;72660;51.258;-2.200;2024-03-22T09:11:27;101194.28;;;12.05;52.20
82887;BME280;72660;51.258;-2.200;2024-03-22T09:13:53;101194.29;;;11.45;50.96
82887;BME280;72660;51.258;-2.200;2024-03-22T09:16:18;101192.46;;;11.73;50.33
82887;BME280;72660;51.258;-2.200;2024-03-22T09:18:44;101194.58;;;11.34;51.06
82887;BME280;72660;51.258;-2.200;2024-03-22T09:21:09;101191.51;;;11.06;51.88
82887;BME280;72660;51.258;-2.200;2024-03-22T09:23:35;101190.85;;;11.88;50.89
82887;BME280;72660;51.258;-2.200;2024-03-22T09:26:00;101189.31;;;11.65;51.62
82887;BME280;72660;51.258;-2.200;2024-03-22T09:28:25;101190.01;;;11.10;51.59
82887;BME280;72660;51.258;-2.200;2024-03-22T09:30:50;101204.36;;;11.04;52.86
82887;BME280;72660;51.258;-2.200;2024-03-22T09:33:15;101210.87;;;10.75;52.88
82887;BME280;72660;51.258;-2.200;2024-03-22T09:35:41;101213.54;;;10.93;53.02
82887;BME280;72660;51.258;-2.200;2024-03-22T09:38:06;101205.30;;;11.70;51.94
82887;BME280;72660;51.258;-2.200;2024-03-22T09:40:32;101207.01;;;11.49;51.71
82887;BME280;72660;51.258;-2.200;2024-03-22T09:43:02;101203.11;;;11.21;52.48
82887;BME280;72660;51.258;-2.200;2024-03-22T09:45:23;101203.76;;;11.35;53.18
82887;BME280;72660;51.258;-2.200;2024-03-22T09:47:48;101204.52;;;10.78;53.69
82887;BME280;72660;51.258;-2.200;2024-03-22T09:50:13;101194.95;;;11.00;52.60
82887;BME280;72660;51.258;-2.200;2024-03-22T09:52:38;101208.07;;;11.12;53.34
82887;BME280;72660;51.258;-2.200;2024-03-22T09:55:05;101213.69;;;10.60;53.28
82887;BME280;72660;51.258;-2.200;2024-03-22T09:57:29;101214.72;;;11.11;53.47
82887;BME280;72660;51.258;-2.200;2024-03-22T09:59:54;101208.91;;;11.02;53.23
82887;BME280;72660;51.258;-2.200;2024-03-22T10:02:20;101209.79;;;11.11;52.34
82887;BME280;72660;51.258;-2.200;2024-03-22T10:04:45;101216.40;;;11.40;52.24
82887;BME280;72660;51.258;-2.200;2024-03-22T10:07:10;101213.76;;;11.11;52.19
82887;BME280;72660;51.258;-2.200;2024-03-22T10:09:35;101213.04;;;11.47;52.12
82887;BME280;72660;51.258;-2.200;2024-03-22T10:12:06;101206.14;;;11.30;52.35
82887;BME280;72660;51.258;-2.200;2024-03-22T10:14:26;101206.66;;;11.47;52.21
82887;BME280;72660;51.258;-2.200;2024-03-22T10:16:52;101203.88;;;11.36;52.49
82887;BME280;72660;51.258;-2.200;2024-03-22T10:19:18;101203.09;;;11.56;52.31
82887;BME280;72660;51.258;-2.200;2024-03-22T10:21:43;101186.93;;;11.02;52.86
82887;BME280;72660;51.258;-2.200;2024-03-22T10:24:09;101188.93;;;11.02;52.10
82887;BME280;72660;51.258;-2.200;2024-03-22T10:26:34;101189.40;;;10.90;52.18
82887;BME280;72660;51.258;-2.200;2024-03-22T10:29:00;101193.90;;;11.23;52.06
82887;BME280;72660;51.258;-2.200;2024-03-22T10:31:25;101194.92;;;11.69;51.45
82887;BME280;72660;51.258;-2.200;2024-03-22T10:33:53;101195.09;;;11.76;51.19
82887;BME280;72660;51.258;-2.200;2024-03-22T10:36:17;101191.02;;;12.99;50.39
82887;BME280;72660;51.258;-2.200;2024-03-22T10:38:43;101176.26;;;11.72;50.76
82887;BME280;72660;51.258;-2.200;2024-03-22T10:41:08;101178.80;;;12.35;50.16
82887;BME280;72660;51.258;-2.200;2024-03-22T10:43:34;101190.75;;;13.13;49.47
82887;BME280;72660;51.258;-2.200;2024-03-22T10:46:01;101192.20;;;12.61;50.07
82887;BME280;72660;51.258;-2.200;2024-03-22T10:48:25;101192.22;;;12.74;49.36
82887;BME280;72660;51.258;-2.200;2024-03-22T10:50:52;101200.90;;;12.82;48.78
82887;BME280;72660;51.258;-2.200;2024-03-22T10:53:18;101199.80;;;12.47;48.79
82887;BME280;72660;51.258;-2.200;2024-03-22T10:55:43;101193.15;;;12.63;48.63
82887;BME280;72660;51.258;-2.200;2024-03-22T10:58:05;101198.28;;;12.13;49.25
82887;BME280;72660;51.258;-2.200;2024-03-22T11:00:32;101199.15;;;12.26;49.25
82887;BME280;72660;51.258;-2.200;2024-03-22T11:02:56;101198.60;;;12.95;47.39
82887;BME280;72660;51.258;-2.200;2024-03-22T11:05:22;101187.40;;;12.70;46.22
82887;BME280;72660;51.258;-2.200;2024-03-22T11:07:47;101195.76;;;12.77;45.65
82887;BME280;72660;51.258;-2.200;2024-03-22T11:10:12;101195.09;;;12.06;46.33
82887;BME280;72660;51.258;-2.200;2024-03-22T11:12:38;101198.17;;;11.68;45.94
82887;BME280;72660;51.258;-2.200;2024-03-22T11:15:04;101187.40;;;11.93;45.56
82887;BME280;72660;51.258;-2.200;2024-03-22T11:17:28;101188.80;;;12.53;45.44
82887;BME280;72660;51.258;-2.200;2024-03-22T11:19:54;101196.11;;;12.64;46.29
82887;BME280;72660;51.258;-2.200;2024-03-22T11:22:19;101202.02;;;12.92;45.65
82887;BME280;72660;51.258;-2.200;2024-03-22T11:24:45;101197.31;;;13.88;44.15
82887;BME280;72660;51.258;-2.200;2024-03-22T11:27:10;101200.42;;;13.08;44.03
82887;BME280;72660;51.258;-2.200;2024-03-22T11:29:35;101199.96;;;13.04;43.95
82887;BME280;72660;51.258;-2.200;2024-03-22T11:32:01;101196.34;;;13.03;44.29
82887;BME280;72660;51.258;-2.200;2024-03-22T11:34:26;101194.09;;;12.91;44.72
82887;BME280;72660;51.258;-2.200;2024-03-22T11:36:54;101200.66;;;13.00;44.58
82887;BME280;72660;51.258;-2.200;2024-03-22T11:39:17;101198.56;;;13.55;44.16
82887;BME280;72660;51.258;-2.200;2024-03-22T11:41:43;101191.86;;;13.75;42.77
82887;BME280;72660;51.258;-2.200;2024-03-22T11:44:08;101195.34;;;12.64;42.14
82887;BME280;72660;51.258;-2.200;2024-03-22T11:46:33;101190.84;;;12.81;42.93
82887;BME280;72660;51.258;-2.200;2024-03-22T11:48:59;101180.50;;;12.95;43.01
82887;BME280;72660;51.258;-2.200;2024-03-22T11:51:25;101184.57;;;12.46;44.09
82887;BME280;72660;51.258;-2.200;2024-03-22T11:53:51;101180.81;;;12.65;43.51
82887;BME280;72660;51.258;-2.200;2024-03-22T11:56:18;101169.88;;;13.23;42.47
82887;BME280;72660;51.258;-2.200;2024-03-22T11:58:42;101163.74;;;14.22;41.24
82887;BME280;72660;51.258;-2.200;2024-03-22T12:01:07;101164.44;;;13.62;41.72
82887;BME280;72660;51.258;-2.200;2024-03-22T12:03:32;101163.08;;;13.00;42.38
82887;BME280;72660;51.258;-2.200;2024-03-22T12:05:58;101156.28;;;12.98;42.45
82887;BME280;72660;51.258;-2.200;2024-03-22T12:08:23;101154.16;;;13.58;42.11
82887;BME280;72660;51.258;-2.200;2024-03-22T12:10:49;101147.09;;;13.77;41.93
82887;BME280;72660;51.258;-2.200;2024-03-22T12:13:14;101145.28;;;13.10;42.20
82887;BME280;72660;51.258;-2.200;2024-03-22T12:15:40;101147.42;;;13.48;43.82
82887;BME280;72660;51.258;-2.200;2024-03-22T12:18:05;101148.51;;;13.46;43.81
82887;BME280;72660;51.258;-2.200;2024-03-22T12:20:31;101149.89;;;14.49;42.40
82887;BME280;72660;51.258;-2.200;2024-03-22T12:22:57;101150.70;;;14.75;42.16
82887;BME280;72660;51.258;-2.200;2024-03-22T12:25:22;101155.36;;;14.57;41.45
82887;BME280;72660;51.258;-2.200;2024-03-22T12:27:48;101154.19;;;14.95;40.80
82887;BME280;72660;51.258;-2.200;2024-03-22T12:30:14;101150.53;;;14.49;40.45